createdAt,value
2017-12-25T00:00:29.283Z,8.80
2017-12-25T00:02:58.285Z,8.80
2017-12-25T00:05:26.019Z,8.80
2017-12-25T00:07:53.514Z,8.80
2017-12-25T00:10:21.398Z,8.80
2017-12-25T00:12:48.994Z,8.80
2017-12-25T00:15:17.068Z,8.80
2017-12-25T00:17:45.015Z,8.70
2017-12-25T00:20:12.502Z,8.70
2017-12-25T00:22:40.011Z,8.80
2017-12-25T00:25:08.079Z,8.80
2017-12-25T00:27:36.804Z,8.70
2017-12-25T00:30:04.295Z,8.70
2017-12-25T00:32:32.299Z,8.70
2017-12-25T00:34:59.799Z,8.70
2017-12-25T00:37:27.307Z,8.70
2017-12-25T00:39:55.007Z,8.70
2017-12-25T00:42:22.515Z,8.70
2017-12-25T00:44:50.076Z,8.70
2017-12-25T00:47:18.354Z,8.70
2017-12-25T00:49:46.063Z,8.70
2017-12-25T00:52:13.824Z,8.70
2017-12-25T00:54:41.586Z,8.80
2017-12-25T00:57:09.351Z,8.80
2017-12-25T00:59:37.119Z,8.80
2017-12-25T01:02:05.498Z,8.80
2017-12-25T01:04:33.003Z,8.80
2017-12-25T01:07:00.715Z,8.80
2017-12-25T01:09:28.223Z,8.80
2017-12-25T01:11:55.934Z,8.80
2017-12-25T01:14:23.471Z,8.90
2017-12-25T01:16:51.155Z,8.90
2017-12-25T01:19:18.664Z,8.90
2017-12-25T01:21:46.159Z,8.80
2017-12-25T01:24:13.668Z,8.80
2017-12-25T01:26:43.062Z,8.80
2017-12-25T01:29:12.101Z,8.80
2017-12-25T01:31:39.887Z,8.90
2017-12-25T01:34:08.101Z,8.90
2017-12-25T01:36:36.975Z,8.90
2017-12-25T01:39:04.475Z,8.90
2017-12-25T01:41:32.354Z,8.90
2017-12-25T01:44:00.603Z,8.90
2017-12-25T01:46:28.515Z,9.00
2017-12-25T01:48:56.040Z,8.90
2017-12-25T01:51:24.450Z,8.90
2017-12-25T01:53:52.852Z,8.90
2017-12-25T01:56:22.571Z,8.90
2017-12-25T01:58:58.431Z,8.90
2017-12-25T02:01:32.710Z,8.90
2017-12-25T02:04:18.295Z,8.90
2017-12-25T02:07:08.779Z,8.90
2017-12-25T02:09:36.555Z,8.90
2017-12-25T02:12:04.064Z,8.90
2017-12-25T02:14:31.771Z,8.90
2017-12-25T02:16:59.668Z,8.90
2017-12-25T02:19:28.233Z,8.90
2017-12-25T02:21:56.287Z,9.00
2017-12-25T02:24:24.175Z,9.00
2017-12-25T02:26:51.667Z,8.90
2017-12-25T02:29:19.932Z,8.90
2017-12-25T02:31:47.592Z,8.90
2017-12-25T02:34:15.483Z,8.90
2017-12-25T02:36:43.181Z,9.00
2017-12-25T02:39:10.675Z,9.00
2017-12-25T02:41:38.280Z,9.00
2017-12-25T02:44:05.854Z,9.00
2017-12-25T02:46:33.379Z,8.90
2017-12-25T02:49:01.029Z,8.90
2017-12-25T02:51:28.907Z,8.90
2017-12-25T02:53:57.337Z,8.90
2017-12-25T02:56:24.831Z,8.90
2017-12-25T02:58:53.091Z,8.90
2017-12-25T03:01:20.586Z,8.80
2017-12-25T03:03:48.082Z,8.80
2017-12-25T03:06:16.018Z,8.80
2017-12-25T03:08:43.534Z,8.70
2017-12-25T03:11:11.255Z,8.70
2017-12-25T03:13:39.023Z,8.60
2017-12-25T03:16:08.011Z,8.60
2017-12-25T03:18:36.022Z,8.60
2017-12-25T03:21:04.834Z,8.50
2017-12-25T03:23:32.340Z,8.60
2017-12-25T03:26:00.298Z,8.60
2017-12-25T03:28:27.810Z,8.60
2017-12-25T03:30:55.428Z,8.50
2017-12-25T03:33:23.700Z,8.50
2017-12-25T03:35:52.007Z,8.60
2017-12-25T03:38:19.506Z,8.60
2017-12-25T03:40:49.339Z,8.60
2017-12-25T03:43:17.099Z,8.60
2017-12-25T03:45:44.870Z,8.70
2017-12-25T03:48:12.763Z,8.70
2017-12-25T03:50:41.307Z,8.80
2017-12-25T03:53:08.811Z,8.80
2017-12-25T03:55:36.839Z,8.80
2017-12-25T03:58:04.343Z,8.90
2017-12-25T04:00:32.059Z,8.80
2017-12-25T04:02:59.549Z,8.80
2017-12-25T04:05:27.868Z,8.90
2017-12-25T04:07:55.356Z,8.90
2017-12-25T04:10:23.361Z,8.90
2017-12-25T04:12:50.856Z,8.90
2017-12-25T04:15:18.471Z,8.80
2017-12-25T04:17:46.087Z,8.90
2017-12-25T04:20:13.595Z,8.90
2017-12-25T04:22:41.092Z,8.90
2017-12-25T04:25:08.596Z,8.80
2017-12-25T04:27:36.227Z,8.90
2017-12-25T04:30:04.004Z,8.90
2017-12-25T04:32:31.496Z,8.80
2017-12-25T04:34:59.215Z,8.90
2017-12-25T04:37:26.710Z,8.90
2017-12-25T04:39:54.431Z,8.90
2017-12-25T04:42:21.925Z,8.90
2017-12-25T04:44:49.428Z,8.90
2017-12-25T04:47:17.025Z,8.90
2017-12-25T04:49:44.527Z,8.90
2017-12-25T04:52:12.032Z,8.90
2017-12-25T04:54:39.527Z,8.80
2017-12-25T04:57:07.027Z,8.90
2017-12-25T04:59:34.701Z,8.90
2017-12-25T05:02:02.755Z,8.90
2017-12-25T05:04:31.028Z,8.90
2017-12-25T05:06:58.609Z,8.90
2017-12-25T05:09:26.103Z,8.90
2017-12-25T05:11:54.095Z,8.90
2017-12-25T05:14:21.589Z,8.90
2017-12-25T05:16:49.353Z,9.00
2017-12-25T05:19:17.876Z,9.00
2017-12-25T05:21:46.155Z,9.00
2017-12-25T05:24:14.181Z,9.00
2017-12-25T05:26:42.251Z,9.00
2017-12-25T05:29:10.631Z,9.00
2017-12-25T05:31:39.123Z,9.00
2017-12-25T05:34:06.599Z,9.00
2017-12-25T05:36:34.867Z,9.00
2017-12-25T05:39:02.356Z,9.00
2017-12-25T05:41:30.063Z,9.00
2017-12-25T05:43:57.826Z,9.00
2017-12-25T05:46:25.585Z,9.00
2017-12-25T05:48:53.360Z,9.00
2017-12-25T05:51:21.968Z,9.00
2017-12-25T05:53:49.440Z,9.00
2017-12-25T05:56:16.952Z,9.00
2017-12-25T05:58:44.460Z,9.00
2017-12-25T06:01:12.788Z,9.10
2017-12-25T06:03:40.770Z,9.10
2017-12-25T06:06:08.307Z,9.00
2017-12-25T06:08:36.211Z,9.00
2017-12-25T06:11:03.748Z,8.90
2017-12-25T06:13:31.299Z,8.90
2017-12-25T06:15:58.782Z,8.80
2017-12-25T06:18:26.517Z,8.90
2017-12-25T06:20:54.009Z,8.80
2017-12-25T06:23:21.731Z,8.70
2017-12-25T06:25:49.222Z,8.70
2017-12-25T06:28:16.730Z,8.70
2017-12-25T06:30:44.352Z,8.70
2017-12-25T06:33:11.908Z,8.60
2017-12-25T06:35:39.632Z,8.60
2017-12-25T06:38:07.135Z,8.60
2017-12-25T06:40:35.161Z,8.60
2017-12-25T06:43:03.624Z,8.60
2017-12-25T06:45:31.268Z,8.50
2017-12-25T06:47:59.064Z,8.40
2017-12-25T06:50:26.828Z,8.40
2017-12-25T06:52:56.107Z,8.40
2017-12-25T06:55:23.604Z,8.40
2017-12-25T06:57:52.231Z,8.40
2017-12-25T07:00:20.703Z,8.40
2017-12-25T07:02:49.092Z,8.40
2017-12-25T07:05:17.016Z,8.40
2017-12-25T07:07:45.451Z,8.40
2017-12-25T07:10:13.236Z,8.40
2017-12-25T07:12:40.736Z,8.40
2017-12-25T07:15:08.235Z,8.40
2017-12-25T07:17:35.743Z,8.40
2017-12-25T07:20:04.016Z,8.30
2017-12-25T07:22:32.056Z,8.40
2017-12-25T07:24:59.559Z,8.30
2017-12-25T07:27:27.240Z,8.40
2017-12-25T07:29:55.036Z,8.30
2017-12-25T07:32:23.564Z,8.40
2017-12-25T07:34:51.832Z,8.40
2017-12-25T07:37:19.555Z,8.30
2017-12-25T07:39:47.904Z,8.30
2017-12-25T07:42:15.404Z,8.30
2017-12-25T07:44:43.465Z,8.70
2017-12-25T07:47:11.024Z,9.70
2017-12-25T07:49:38.908Z,10.00
2017-12-25T07:52:06.412Z,10.30
2017-12-25T07:54:33.927Z,10.10
2017-12-25T07:57:02.208Z,9.10
2017-12-25T07:59:30.968Z,8.70
2017-12-25T08:01:58.582Z,8.60
2017-12-25T08:04:26.847Z,8.60
2017-12-25T08:06:54.567Z,8.50
2017-12-25T08:09:22.075Z,8.40
2017-12-25T08:11:49.748Z,8.40
2017-12-25T08:14:17.824Z,8.40
2017-12-25T08:16:45.620Z,8.30
2017-12-25T08:19:13.120Z,8.40
2017-12-25T08:21:40.840Z,8.50
2017-12-25T08:24:08.443Z,9.90
2017-12-25T08:26:36.719Z,11.10
2017-12-25T08:29:05.025Z,11.50
2017-12-25T08:31:32.528Z,11.40
2017-12-25T08:34:00.020Z,9.40
2017-12-25T08:53:46.542Z,10.90
2017-12-25T08:56:14.119Z,10.60
2017-12-25T08:58:41.854Z,10.20
2017-12-25T09:01:09.348Z,10.40
2017-12-25T09:03:37.120Z,10.70
2017-12-25T09:06:04.629Z,9.30
2017-12-25T09:08:32.123Z,9.00
2017-12-25T09:10:59.795Z,8.80
2017-12-25T09:13:27.300Z,8.80
2017-12-25T09:15:55.063Z,8.80
2017-12-25T09:18:23.087Z,8.70
2017-12-25T09:20:51.503Z,8.80
2017-12-25T09:23:19.020Z,8.80
2017-12-25T09:25:47.285Z,8.80
2017-12-25T09:28:15.191Z,8.80
2017-12-25T09:30:44.407Z,8.80
2017-12-25T09:33:11.912Z,8.80
2017-12-25T09:35:39.583Z,8.80
2017-12-25T09:38:07.097Z,8.80
2017-12-25T09:40:34.795Z,8.70
2017-12-25T09:43:02.687Z,8.70
2017-12-25T09:45:32.279Z,8.70
2017-12-25T09:47:59.955Z,8.70
2017-12-25T09:50:27.696Z,8.70
2017-12-25T09:52:55.192Z,8.60
2017-12-25T09:55:22.955Z,8.60
2017-12-25T09:57:50.458Z,8.70
2017-12-25T10:00:19.074Z,8.70
2017-12-25T10:02:46.882Z,8.70
2017-12-25T10:05:14.596Z,8.80
2017-12-25T10:07:42.092Z,8.80
2017-12-25T10:10:09.596Z,8.70
2017-12-25T10:12:37.267Z,8.80
2017-12-25T10:15:05.040Z,8.70
2017-12-25T10:17:32.531Z,8.80
2017-12-25T10:20:00.052Z,8.80
2017-12-25T10:22:28.319Z,8.80
2017-12-25T10:24:56.090Z,8.90
2017-12-25T10:27:24.474Z,10.20
2017-12-25T10:29:52.080Z,11.00
2017-12-25T10:32:20.344Z,11.10
2017-12-25T10:34:47.859Z,11.00
2017-12-25T10:37:15.355Z,11.50
2017-12-25T10:39:42.861Z,10.40
2017-12-25T10:42:10.547Z,9.40
2017-12-25T10:44:38.499Z,9.00
2017-12-25T10:47:06.263Z,8.80
2017-12-25T10:49:34.808Z,8.90
2017-12-25T10:52:03.125Z,8.90
2017-12-25T10:54:31.020Z,8.90
2017-12-25T10:56:58.544Z,8.90
2017-12-25T10:59:26.571Z,8.90
2017-12-25T11:01:54.177Z,8.80
2017-12-25T11:04:21.668Z,8.80
2017-12-25T11:06:49.295Z,8.80
2017-12-25T11:09:17.155Z,8.80
2017-12-25T11:11:44.663Z,8.80
2017-12-25T11:14:12.379Z,8.70
2017-12-25T11:16:39.884Z,8.60
2017-12-25T11:19:08.212Z,8.70
2017-12-25T11:21:35.711Z,8.70
2017-12-25T11:24:03.982Z,8.70
2017-12-25T11:26:31.999Z,8.60
2017-12-25T11:28:59.483Z,8.70
2017-12-25T11:31:27.010Z,8.70
2017-12-25T11:33:54.691Z,8.70
2017-12-25T11:36:23.077Z,8.70
2017-12-25T11:38:50.576Z,8.70
2017-12-25T11:41:18.287Z,8.70
2017-12-25T11:43:46.352Z,8.70
2017-12-25T11:46:14.367Z,8.60
2017-12-25T11:48:42.664Z,8.70
2017-12-25T11:51:11.677Z,8.70
2017-12-25T11:53:39.164Z,8.70
2017-12-25T11:56:09.872Z,8.60
2017-12-25T11:58:37.763Z,8.70
2017-12-25T12:01:05.271Z,8.70
2017-12-25T12:03:33.699Z,8.70
2017-12-25T12:06:01.214Z,8.60
2017-12-25T12:08:29.223Z,8.60
2017-12-25T12:10:57.112Z,8.70
2017-12-25T12:13:24.724Z,8.60
2017-12-25T12:15:52.211Z,8.70
2017-12-25T12:18:19.707Z,8.70
2017-12-25T12:20:47.699Z,8.70
2017-12-25T12:23:15.799Z,8.80
2017-12-25T12:25:44.160Z,8.80
2017-12-25T12:28:11.674Z,8.80
2017-12-25T12:30:39.407Z,8.80
2017-12-25T12:33:07.131Z,8.70
2017-12-25T12:35:34.623Z,8.70
2017-12-25T12:38:02.128Z,8.70
2017-12-25T12:40:29.851Z,8.70
2017-12-25T12:42:57.723Z,8.70
2017-12-25T12:45:25.267Z,8.70
2017-12-25T12:47:52.799Z,8.80
2017-12-25T12:50:20.505Z,8.70
2017-12-25T12:52:48.697Z,8.70
2017-12-25T12:55:16.198Z,8.60
2017-12-25T12:57:45.222Z,8.60
2017-12-25T13:00:13.119Z,8.60
2017-12-25T13:02:40.635Z,8.60
2017-12-25T13:05:08.135Z,8.50
2017-12-25T13:07:35.855Z,8.60
2017-12-25T13:10:03.618Z,10.40
2017-12-25T13:12:31.127Z,11.10
2017-12-25T13:14:58.840Z,11.60
2017-12-25T13:17:26.743Z,10.90
2017-12-25T13:19:54.648Z,10.30
2017-12-25T13:22:22.132Z,9.20
2017-12-25T13:24:49.627Z,8.80
2017-12-25T13:27:17.304Z,8.80
2017-12-25T13:29:45.424Z,8.70
2017-12-25T13:32:12.932Z,8.70
2017-12-25T13:34:40.824Z,8.70
2017-12-25T13:37:08.404Z,8.70
2017-12-25T13:39:36.167Z,8.60
2017-12-25T13:42:03.671Z,8.60
2017-12-25T13:44:32.476Z,8.60
2017-12-25T13:47:00.052Z,8.60
2017-12-25T13:49:28.143Z,8.60
2017-12-25T13:51:55.908Z,8.60
2017-12-25T13:54:23.667Z,8.60
2017-12-25T13:56:51.431Z,8.50
2017-12-25T13:59:18.928Z,8.60
2017-12-25T14:01:46.427Z,8.50
2017-12-25T14:04:14.027Z,8.50
2017-12-25T14:06:41.529Z,8.40
2017-12-25T14:09:09.536Z,8.40
2017-12-25T14:11:37.427Z,8.30
2017-12-25T14:14:04.927Z,8.50
2017-12-25T14:16:32.624Z,8.50
2017-12-25T14:19:00.115Z,8.50
2017-12-25T14:21:27.872Z,8.50
2017-12-25T14:23:56.201Z,8.40
2017-12-25T14:26:23.704Z,8.40
2017-12-25T14:28:51.407Z,8.40
2017-12-25T14:31:20.432Z,8.30
2017-12-25T14:33:47.924Z,8.40
2017-12-25T14:36:15.415Z,8.40
2017-12-25T14:38:43.099Z,8.50
2017-12-25T14:41:10.599Z,8.50
2017-12-25T14:43:38.330Z,8.50
2017-12-25T14:46:06.215Z,8.60
2017-12-25T14:48:34.099Z,8.50
2017-12-25T14:51:01.600Z,8.50
2017-12-25T14:53:29.541Z,8.40
2017-12-25T14:55:57.795Z,8.50
2017-12-25T14:58:25.283Z,8.50
2017-12-25T15:00:52.983Z,8.50
2017-12-25T15:03:20.604Z,8.50
2017-12-25T15:05:48.934Z,8.50
2017-12-25T15:08:16.444Z,8.50
2017-12-25T15:10:43.995Z,8.50
2017-12-25T15:13:12.112Z,8.50
2017-12-25T15:15:39.612Z,8.50
2017-12-25T15:18:08.343Z,8.50
2017-12-25T15:20:36.007Z,8.50
2017-12-25T15:23:04.043Z,8.60
2017-12-25T15:25:32.471Z,8.60
2017-12-25T15:28:00.223Z,8.60
2017-12-25T15:30:27.719Z,8.60
2017-12-25T15:32:55.948Z,8.60
2017-12-25T15:35:23.448Z,8.60
2017-12-25T15:37:50.971Z,8.50
2017-12-25T15:40:18.919Z,8.50
2017-12-25T15:42:46.499Z,8.50
2017-12-25T15:45:14.924Z,8.60
2017-12-25T15:47:42.591Z,8.60
2017-12-25T15:50:10.391Z,8.60
2017-12-25T15:52:37.883Z,8.50
2017-12-25T15:55:05.647Z,8.40
2017-12-25T15:57:33.651Z,8.50
2017-12-25T16:00:01.460Z,8.40
2017-12-25T16:02:28.953Z,8.50
2017-12-25T16:04:57.176Z,8.50
2017-12-25T16:07:24.751Z,8.40
2017-12-25T16:09:52.660Z,8.40
2017-12-25T16:12:22.119Z,8.50
2017-12-25T16:14:49.618Z,8.30
2017-12-25T16:17:17.507Z,8.30
2017-12-25T16:19:45.408Z,8.30
2017-12-25T16:22:12.928Z,8.30
2017-12-25T16:24:41.159Z,8.40
2017-12-25T16:27:08.676Z,8.40
2017-12-25T16:29:37.039Z,8.30
2017-12-25T16:32:04.544Z,8.30
2017-12-25T16:34:32.540Z,8.40
2017-12-25T16:37:00.041Z,8.30
2017-12-25T16:39:27.532Z,8.30
2017-12-25T16:41:55.568Z,8.30
2017-12-25T16:44:23.016Z,8.30
2017-12-25T16:46:51.423Z,8.40
2017-12-25T16:49:18.919Z,8.40
2017-12-25T16:51:46.418Z,8.30
2017-12-25T16:54:14.068Z,8.20
2017-12-25T16:56:42.759Z,8.20
2017-12-25T16:59:10.820Z,8.30
2017-12-25T17:01:38.715Z,8.30
2017-12-25T17:04:06.200Z,8.40
2017-12-25T17:06:33.818Z,8.20
2017-12-25T17:09:01.540Z,8.20
2017-12-25T17:11:29.979Z,8.30
2017-12-25T17:13:58.963Z,8.20
2017-12-25T17:16:26.477Z,8.20
2017-12-25T17:18:54.126Z,8.20
2017-12-25T17:21:22.572Z,8.20
2017-12-25T17:23:50.067Z,8.20
2017-12-25T17:26:17.562Z,9.10
2017-12-25T17:28:45.247Z,10.60
2017-12-25T17:31:12.756Z,10.60
2017-12-25T17:33:40.467Z,10.80
2017-12-25T17:36:07.972Z,10.50
2017-12-25T17:38:35.471Z,10.30
2017-12-25T17:41:02.975Z,9.90
2017-12-25T17:43:31.528Z,9.60
2017-12-25T17:45:59.812Z,9.80
2017-12-25T17:48:28.600Z,8.90
2017-12-25T17:50:56.320Z,8.40
2017-12-25T17:53:24.423Z,8.30
2017-12-25T17:55:52.800Z,8.20
2017-12-25T17:58:20.701Z,8.30
2017-12-25T18:00:48.181Z,8.30
2017-12-25T18:03:16.443Z,8.30
2017-12-25T18:05:44.160Z,8.20
2017-12-25T18:08:11.927Z,8.10
2017-12-25T18:10:39.688Z,8.00
2017-12-25T18:13:07.204Z,8.00
2017-12-25T18:15:35.091Z,8.00
2017-12-25T18:18:02.672Z,8.00
2017-12-25T18:20:30.983Z,8.00
2017-12-25T18:22:59.428Z,8.10
2017-12-25T18:25:27.139Z,8.00
2017-12-25T18:27:54.643Z,8.00
2017-12-25T18:30:22.412Z,8.00
2017-12-25T18:32:50.178Z,8.00
2017-12-25T18:35:17.941Z,8.00
2017-12-25T18:37:46.188Z,8.00
2017-12-25T18:40:14.387Z,8.10
2017-12-25T18:42:41.888Z,8.10
2017-12-25T18:45:09.381Z,8.00
2017-12-25T18:47:37.028Z,8.00
2017-12-25T18:50:04.919Z,7.90
2017-12-25T18:52:33.548Z,8.00
2017-12-25T18:55:01.050Z,7.90
2017-12-25T18:57:29.675Z,7.80
2017-12-25T18:59:57.415Z,7.80
2017-12-25T19:02:25.183Z,7.80
2017-12-25T19:04:53.096Z,7.80
2017-12-25T19:07:21.627Z,7.80
2017-12-25T19:09:49.395Z,8.00
2017-12-25T19:12:16.900Z,8.00
2017-12-25T19:14:45.155Z,8.00
2017-12-25T19:17:12.657Z,7.80
2017-12-25T19:19:40.448Z,7.90
2017-12-25T19:22:08.212Z,7.90
2017-12-25T19:24:35.976Z,7.90
2017-12-25T19:27:03.744Z,7.90
2017-12-25T19:29:31.244Z,7.80
2017-12-25T19:31:58.743Z,7.80
2017-12-25T19:34:26.372Z,8.00
2017-12-25T19:36:53.878Z,9.20
2017-12-25T19:39:21.383Z,10.00
2017-12-25T19:41:49.832Z,10.00
2017-12-25T19:44:17.432Z,8.50
2017-12-25T19:46:45.237Z,8.00
2017-12-25T19:49:12.999Z,8.00
2017-12-25T19:51:40.500Z,7.90
2017-12-25T19:54:08.183Z,7.80
2017-12-25T19:56:35.688Z,7.90
2017-12-25T19:59:03.955Z,7.90
2017-12-25T20:01:31.496Z,7.80
2017-12-25T20:03:59.004Z,7.70
2017-12-25T20:06:26.866Z,7.70
2017-12-25T20:08:54.915Z,8.00
2017-12-25T20:11:22.423Z,7.70
2017-12-25T20:13:50.941Z,7.70
2017-12-25T20:16:18.712Z,7.90
2017-12-25T20:18:47.604Z,7.80
2017-12-25T20:21:15.768Z,7.70
2017-12-25T20:23:43.275Z,7.70
2017-12-25T20:26:10.772Z,7.70
2017-12-25T20:28:39.164Z,7.70
2017-12-25T20:31:06.823Z,7.70
2017-12-25T20:33:35.337Z,7.70
2017-12-25T20:36:02.828Z,7.70
2017-12-25T20:38:31.339Z,7.60
2017-12-25T20:40:58.851Z,7.60
2017-12-25T20:43:27.150Z,7.70
2017-12-25T20:45:54.643Z,7.80
2017-12-25T20:48:22.151Z,7.80
2017-12-25T20:50:49.648Z,7.70
2017-12-25T20:53:17.156Z,7.60
2017-12-25T20:55:45.420Z,7.70
2017-12-25T20:58:13.124Z,7.80
2017-12-25T21:00:40.840Z,7.80
2017-12-25T21:03:08.364Z,7.70
2017-12-25T21:05:36.127Z,7.70
2017-12-25T21:08:03.892Z,7.70
2017-12-25T21:10:31.400Z,7.70
2017-12-25T21:12:58.892Z,7.70
2017-12-25T21:15:26.445Z,7.70
2017-12-25T21:17:54.515Z,9.70
2017-12-25T21:20:22.008Z,11.50
2017-12-25T21:22:50.472Z,10.10
2017-12-25T21:25:17.979Z,8.70
2017-12-25T21:27:45.647Z,8.30
2017-12-25T21:30:13.147Z,8.00
2017-12-25T21:32:41.262Z,7.80
2017-12-25T21:35:08.755Z,7.70
2017-12-25T21:37:36.748Z,7.70
2017-12-25T21:40:04.249Z,7.70
2017-12-25T21:42:31.936Z,7.70
2017-12-25T21:44:59.447Z,7.70
2017-12-25T21:47:27.059Z,7.70
2017-12-25T21:49:56.024Z,7.70
2017-12-25T21:52:24.279Z,7.60
2017-12-25T21:54:52.016Z,7.60
2017-12-25T21:57:20.083Z,7.70
2017-12-25T21:59:48.090Z,7.70
2017-12-25T22:02:16.348Z,7.60
2017-12-25T22:04:44.294Z,8.30
2017-12-25T22:07:12.198Z,7.80
2017-12-25T22:09:39.697Z,7.70
2017-12-25T22:12:07.859Z,7.70
2017-12-25T22:14:35.356Z,7.70
2017-12-25T22:17:02.859Z,7.70
2017-12-25T22:19:30.575Z,7.50
2017-12-25T22:21:58.080Z,8.80
2017-12-25T22:24:25.791Z,9.30
2017-12-25T22:26:54.480Z,9.30
2017-12-25T22:29:22.616Z,8.70
2017-12-25T22:31:50.297Z,8.20
2017-12-25T22:34:18.080Z,7.80
2017-12-25T22:36:45.579Z,7.70
2017-12-25T22:39:13.259Z,7.60
2017-12-25T22:41:41.062Z,7.60
2017-12-25T22:44:09.621Z,7.70
2017-12-25T22:46:37.932Z,7.50
2017-12-25T22:49:05.538Z,7.60
2017-12-25T22:51:33.766Z,7.50
2017-12-25T22:54:01.699Z,7.60
2017-12-25T22:56:29.200Z,7.40
2017-12-25T22:58:56.695Z,7.50
2017-12-25T23:01:24.386Z,7.70
2017-12-25T23:03:52.635Z,7.50
2017-12-25T23:06:20.543Z,7.40
2017-12-25T23:08:48.044Z,7.50
2017-12-25T23:11:15.719Z,7.60
2017-12-25T23:13:43.211Z,7.60
2017-12-25T23:16:11.243Z,7.40
2017-12-25T23:18:38.744Z,7.30
2017-12-25T23:21:06.468Z,7.40
2017-12-25T23:23:33.983Z,7.40
2017-12-25T23:26:01.695Z,7.40
2017-12-25T23:28:29.199Z,7.40
2017-12-25T23:30:57.195Z,7.30
2017-12-25T23:33:24.725Z,7.40
2017-12-25T23:35:52.216Z,7.50
2017-12-25T23:38:19.910Z,7.30
2017-12-25T23:40:47.400Z,7.30
2017-12-25T23:43:15.742Z,7.30
2017-12-25T23:45:44.104Z,7.30
2017-12-25T23:48:11.619Z,7.10
2017-12-25T23:50:39.115Z,7.20
2017-12-25T23:53:06.764Z,7.20
2017-12-25T23:55:34.650Z,7.10
2017-12-25T23:58:02.346Z,7.20
